Norwegian Spirit — C6TQ6 — position and weather

sailwx.info

Track history (hours):
 
Tides and Currents Weather Stations Pressure Air Temp Water Temp Dewpoint Dewpoint Depression Visibility Wind Speed Wind Dir Waves Ship Positions

Norwegian Spirit

Operator: Norwegian Cruise Line

Last reported at 2016-Sep-24 14:34 UTC. Time now 2016-Sep-25 08:57 UTC.
Position N 37°25' E 025°07'.

Type: Passenger vessel. MMSI: 311746000.

Date/timePositionNaut miles runAvg speedWind from/ knotsBaromVisibWave heightAir tempDewpointWater temp
2016-Sep-24 14:34N 37°25' E 025°07'10 4.6
2016-Sep-24 12:23N 37°27' E 025°19'0 0.0
2016-Sep-24 10:17N 37°27' E 025°19'0 0.0
2016-Sep-24 09:26N 37°27' E 025°19'4 0.8
2016-Sep-24 03:33N 37°32' E 025°19'1211.9
2016-Sep-24 02:33N 37°39' E 025°30'8 7.6
2016-Sep-24 01:33N 37°47' E 025°32'7 7.5
2016-Sep-24 00:33N 37°52' E 025°25'6312.4
2016-Sep-23 19:30N 37°44' E 024°07'9 4.6
2016-Sep-23 17:33N 37°36' E 024°06'1212.0
2016-Sep-23 16:33N 37°37' E 023°50'1212.3
2016-Sep-23 15:34N 37°45' E 023°39'11 5.6
2016-Sep-23 13:32N 37°56' E 023°38'0 0.0
2016-Sep-23 09:32N 37°56' E 023°38'0 0.0
2016-Sep-23 06:32N 37°56' E 023°38'0 0.0
2016-Sep-23 04:32N 37°56' E 023°38'0 0.0
2016-Sep-23 03:32N 37°56' E 023°38'0 0.0
2016-Sep-23 02:32N 37°56' E 023°38'1 1.0
2016-Sep-23 01:33N 37°56' E 023°37'1212.5
2016-Sep-23 00:33N 37°44' E 023°43'1716.7
2016-Sep-22 23:33N 37°28' E 023°43'37912.2
2016-Sep-21 16:33N 42°23' E 018°33'11 1.5
2016-Sep-21 09:33N 42°28' E 018°45'0 0.0
2016-Sep-21 08:33N 42°28' E 018°45'0 0.0
2016-Sep-21 05:33N 42°28' E 018°45'10 5.1
2016-Sep-21 03:33N 42°24' E 018°33'7 7.3
2016-Sep-21 02:33N 42°18' E 018°27'35 3.9
2016-Sep-20 17:32N 42°31' E 017°44'219 6.2
2016-Sep-19 06:03N 44°11' E 013°15'2710.7
2016-Sep-19 03:33N 44°35' E 013°02'1110.7
2016-Sep-19 02:33N 44°46' E 012°57'2110.7
2016-Sep-19 00:33N 45°05' E 012°43'28 5.5
2016-Sep-18 19:31N 45°26' E 012°19'0 0.0
2016-Sep-18 15:31N 45°26' E 012°19'0 0.0
2016-Sep-18 14:31N 45°26' E 012°19'0 0.0
2016-Sep-18 10:31N 45°26' E 012°19'0 0.0
2016-Sep-18 09:31N 45°26' E 012°19'0 0.0
2016-Sep-18 02:31N 45°26' E 012°19'0 0.0
2016-Sep-18 01:31N 45°26' E 012°19'0 0.0
2016-Sep-18 00:31N 45°26' E 012°19'0 0.0
2016-Sep-17 22:33N 45°26' E 012°19'0 0.0
2016-Sep-17 21:33N 45°26' E 012°19'0 0.0
2016-Sep-17 20:33N 45°26' E 012°19'3 2.1
2016-Sep-17 19:16N 45°25' E 012°22'6912.1
2016-Sep-17 13:33N 44°26' E 013°12'1313.4
2016-Sep-17 12:33N 44°15' E 013°22'2813.7
2016-Sep-17 10:30N 43°57' E 013°53'22313.2
2016-Sep-16 17:33N 42°21' E 018°28'15 7.3
2016-Sep-16 15:33N 42°28' E 018°45'0 0.0
2016-Sep-16 12:32N 42°28' E 018°45'0 0.0
2016-Sep-16 09:32N 42°28' E 018°45'0 0.0
2016-Sep-16 07:32N 42°28' E 018°45'10 2.6
2016-Sep-16 03:33N 42°23' E 018°33'8 8.2
2016-Sep-16 02:33N 42°16' E 018°27'16 8.2
2016-Sep-16 00:33N 42°04' E 018°13'17 8.2
2016-Sep-15 22:33N 42°12' E 017°53'9 8.4
2016-Sep-15 21:32N 42°16' E 017°44'8 8.4
2016-Sep-15 20:33N 42°25' E 017°43'17 8.6
2016-Sep-15 18:33N 42°38' E 017°59'  
Track history (hours):
 
Tides and Currents Weather Stations Pressure Air Temp Water Temp Dewpoint Dewpoint Depression Visibility Wind Speed Wind Dir Waves Ship Positions

Norwegian Spirit

Operator: Norwegian Cruise Line

Last reported at 2016-Sep-24 14:34 UTC. Time now 2016-Sep-25 08:57 UTC.
Position N 37°25' E 025°07'.

Type: Passenger vessel. MMSI: 311746000.

Date/timePositionNaut miles runAvg speedWind from/ knotsBaromVisibWave heightAir tempDewpointWater temp
2016-Sep-24 14:34N 37°25' E 025°07'10 4.6
2016-Sep-24 12:23N 37°27' E 025°19'0 0.0
2016-Sep-24 10:17N 37°27' E 025°19'0 0.0
2016-Sep-24 09:26N 37°27' E 025°19'4 0.8
2016-Sep-24 03:33N 37°32' E 025°19'1211.9
2016-Sep-24 02:33N 37°39' E 025°30'8 7.6
2016-Sep-24 01:33N 37°47' E 025°32'7 7.5
2016-Sep-24 00:33N 37°52' E 025°25'6312.4
2016-Sep-23 19:30N 37°44' E 024°07'9 4.6
2016-Sep-23 17:33N 37°36' E 024°06'1212.0
2016-Sep-23 16:33N 37°37' E 023°50'1212.3
2016-Sep-23 15:34N 37°45' E 023°39'11 5.6
2016-Sep-23 13:32N 37°56' E 023°38'0 0.0
2016-Sep-23 09:32N 37°56' E 023°38'0 0.0
2016-Sep-23 06:32N 37°56' E 023°38'0 0.0
2016-Sep-23 04:32N 37°56' E 023°38'0 0.0
2016-Sep-23 03:32N 37°56' E 023°38'0 0.0
2016-Sep-23 02:32N 37°56' E 023°38'1 1.0
2016-Sep-23 01:33N 37°56' E 023°37'1212.5
2016-Sep-23 00:33N 37°44' E 023°43'1716.7
2016-Sep-22 23:33N 37°28' E 023°43'37912.2
2016-Sep-21 16:33N 42°23' E 018°33'11 1.5
2016-Sep-21 09:33N 42°28' E 018°45'0 0.0
2016-Sep-21 08:33N 42°28' E 018°45'0 0.0
2016-Sep-21 05:33N 42°28' E 018°45'10 5.1
2016-Sep-21 03:33N 42°24' E 018°33'7 7.3
2016-Sep-21 02:33N 42°18' E 018°27'35 3.9
2016-Sep-20 17:32N 42°31' E 017°44'219 6.2
2016-Sep-19 06:03N 44°11' E 013°15'2710.7
2016-Sep-19 03:33N 44°35' E 013°02'1110.7
2016-Sep-19 02:33N 44°46' E 012°57'2110.7
2016-Sep-19 00:33N 45°05' E 012°43'28 5.5
2016-Sep-18 19:31N 45°26' E 012°19'0 0.0
2016-Sep-18 15:31N 45°26' E 012°19'0 0.0
2016-Sep-18 14:31N 45°26' E 012°19'0 0.0
2016-Sep-18 10:31N 45°26' E 012°19'0 0.0
2016-Sep-18 09:31N 45°26' E 012°19'0 0.0
2016-Sep-18 02:31N 45°26' E 012°19'0 0.0
2016-Sep-18 01:31N 45°26' E 012°19'0 0.0
2016-Sep-18 00:31N 45°26' E 012°19'0 0.0
2016-Sep-17 22:33N 45°26' E 012°19'0 0.0
2016-Sep-17 21:33N 45°26' E 012°19'0 0.0
2016-Sep-17 20:33N 45°26' E 012°19'3 2.1
2016-Sep-17 19:16N 45°25' E 012°22'6912.1
2016-Sep-17 13:33N 44°26' E 013°12'1313.4
2016-Sep-17 12:33N 44°15' E 013°22'2813.7
2016-Sep-17 10:30N 43°57' E 013°53'22313.2
2016-Sep-16 17:33N 42°21' E 018°28'15 7.3
2016-Sep-16 15:33N 42°28' E 018°45'0 0.0
2016-Sep-16 12:32N 42°28' E 018°45'0 0.0
2016-Sep-16 09:32N 42°28' E 018°45'0 0.0
2016-Sep-16 07:32N 42°28' E 018°45'10 2.6
2016-Sep-16 03:33N 42°23' E 018°33'8 8.2
2016-Sep-16 02:33N 42°16' E 018°27'16 8.2
2016-Sep-16 00:33N 42°04' E 018°13'17 8.2
2016-Sep-15 22:33N 42°12' E 017°53'9 8.4
2016-Sep-15 21:32N 42°16' E 017°44'8 8.4
2016-Sep-15 20:33N 42°25' E 017°43'17 8.6
2016-Sep-15 18:33N 42°38' E 017°59'  

Dump ship's entire track history